Time;durP1;ratioP1;P1;durP2;ratioP2;P2;SDS_P1;SDS_P2;PMS_P1;PMS_P2;Temp;Humidity;BMP_temperature;BMP_pressure;BME280_temperature;BME280_humidity;BME280_pressure;Samples;Min_cycle;Max_cycle;Signal;HPM_P1;HPM_P2
2023/10/02 06:40:56;;;;;;;19.40;7.47;;;;;;;14.08;73.48;97277.41;2097927;27;20926;-68
2023/10/02 06:43:28;;;;;;;22.58;9.85;;;;;;;14.85;71.80;97282.31;2081769;28;20964;-68
2023/10/02 06:44:37;;;;;;;27.05;10.18;;;;;;;15.04;71.14;97281.34;2075528;28;20254;-70
2023/10/02 06:45:52;;;;;;;23.27;10.20;;;;;;;15.40;70.58;97285.59;2074066;28;20415;-70
2023/10/02 06:46:55;;;;;;;20.33;8.32;;;;;;;15.56;70.00;97277.69;2077214;28;20200;-70
2023/10/02 06:47:58;;;;;;;18.42;9.15;;;;;;;15.68;69.53;97286.72;2077167;28;20221;-70
2023/10/02 06:48:59;;;;;;;19.92;8.27;;;;;;;15.88;69.51;97285.63;2080397;28;20197;-70
2023/10/02 06:50:21;;;;;;;16.10;8.02;;;;;;;15.73;69.23;97282.03;2080909;28;20943;-70
2023/10/02 06:51:23;;;;;;;20.25;9.02;;;;;;;15.66;69.61;97280.69;2074308;28;20224;-69
2023/10/02 06:52:29;;;;;;;19.58;8.82;;;;;;;15.99;68.54;97282.41;2078610;28;20699;-67
2023/10/02 06:53:31;;;;;;;22.58;9.60;;;;;;;15.89;69.24;97286.47;2079374;28;20200;-69
2023/10/02 06:54:33;;;;;;;25.60;10.27;;;;;;;15.76;68.90;97281.03;2080328;28;20387;-68
2023/10/02 06:55:37;;;;;;;20.48;8.70;;;;;;;15.54;69.94;97283.97;2081861;28;20801;-69
2023/10/02 06:56:43;;;;;;;19.10;9.07;;;;;;;15.25;70.94;97283.75;2078177;28;20197;-68
2023/10/02 06:57:49;;;;;;;22.75;9.48;;;;;;;15.62;70.65;97279.16;2074853;28;20222;-69
2023/10/02 06:58:56;;;;;;;19.30;9.65;;;;;;;16.19;68.74;97278.63;2078628;28;20197;-69
2023/10/02 07:00:02;;;;;;;30.73;9.50;;;;;;;16.58;67.44;97286.94;2081048;28;20192;-69
2023/10/02 07:01:04;;;;;;;18.10;9.50;;;;;;;16.87;66.23;97282.56;2079999;28;20303;-69
2023/10/02 07:02:09;;;;;;;24.38;10.13;;;;;;;16.59;67.03;97281.56;2077933;28;20193;-69
2023/10/02 07:03:10;;;;;;;22.90;9.23;;;;;;;16.46;67.82;97283.25;2081899;28;20227;-69
2023/10/02 07:04:12;;;;;;;26.27;9.73;;;;;;;16.79;67.14;97285.66;2081582;28;20220;-69
2023/10/02 07:05:13;;;;;;;20.20;8.60;;;;;;;16.63;67.10;97279.59;2080326;28;20541;-69
2023/10/02 07:06:18;;;;;;;19.75;10.23;;;;;;;16.80;66.93;97286.53;2079384;28;20228;-70
2023/10/02 07:07:25;;;;;;;27.25;9.88;;;;;;;16.98;66.49;97288.06;2077226;28;20196;-69
2023/10/02 07:08:28;;;;;;;21.42;9.23;;;;;;;17.14;66.19;97282.72;2078966;28;20734;-69
2023/10/02 07:09:36;;;;;;;24.38;9.40;;;;;;;17.00;66.44;97280.09;2074221;28;20200;-70
2023/10/02 07:10:42;;;;;;;24.60;9.07;;;;;;;17.05;65.98;97288.56;2076124;28;20287;-69
2023/10/02 07:11:43;;;;;;;20.02;9.90;;;;;;;17.68;64.71;97288.25;2079627;28;20193;-69
2023/10/02 07:12:45;;;;;;;25.95;11.05;;;;;;;17.76;64.39;97284.19;2077744;28;20212;-69
2023/10/02 07:13:55;;;;;;;22.90;9.65;;;;;;;17.92;63.91;97283.19;2081776;28;20200;-69
2023/10/02 07:15:10;;;;;;;18.38;9.18;;;;;;;18.10;63.18;97282.00;2079972;28;20542;-71
2023/10/02 07:16:12;;;;;;;28.98;9.13;;;;;;;18.01;63.48;97290.56;2078526;28;20198;-69
2023/10/02 07:17:17;;;;;;;21.25;9.90;;;;;;;18.07;63.49;97284.88;2078481;28;20213;-70
2023/10/02 07:18:20;;;;;;;28.40;10.13;;;;;;;18.06;63.58;97282.34;2078639;28;20228;-69
2023/10/02 07:19:38;;;;;;;22.77;10.05;;;;;;;18.16;63.13;97282.59;2082177;28;20565;-69
2023/10/02 07:20:43;;;;;;;24.77;10.20;;;;;;;18.46;62.79;97286.78;2080826;28;20200;-69
2023/10/02 07:21:45;;;;;;;22.52;9.90;;;;;;;19.11;60.95;97282.44;2079067;28;20201;-69
2023/10/02 07:22:47;;;;;;;18.80;9.52;;;;;;;18.84;61.52;97280.72;2078530;28;20230;-69
2023/10/02 07:23:49;;;;;;;22.55;10.10;;;;;;;19.00;61.06;97286.69;2083110;28;20200;-69
2023/10/02 07:24:58;;;;;;;19.75;9.95;;;;;;;18.98;61.72;97274.50;2073724;28;20209;-69
2023/10/02 07:26:00;;;;;;;26.73;10.40;;;;;;;19.03;61.64;97278.53;2079007;28;20278;-69
2023/10/02 07:27:02;;;;;;;22.40;9.63;;;;;;;19.16;61.10;97282.97;2075792;28;20190;-69
2023/10/02 07:28:05;;;;;;;15.90;9.00;;;;;;;18.90;61.95;97281.16;2080710;28;20224;-70
2023/10/02 07:29:07;;;;;;;26.45;10.50;;;;;;;19.75;60.10;97285.00;2080581;28;20640;-70
2023/10/02 07:30:09;;;;;;;20.05;9.77;;;;;;;20.08;59.10;97275.59;2079013;28;20245;-69
2023/10/02 07:31:15;;;;;;;18.85;9.13;;;;;;;20.02;59.39;97273.38;2076749;28;20749;-70
2023/10/02 07:32:22;;;;;;;21.83;9.90;;;;;;;20.09;59.24;97273.78;2079184;28;20304;-69
2023/10/02 07:33:24;;;;;;;22.20;9.90;;;;;;;20.06;59.86;97273.06;2082233;28;20221;-70
2023/10/02 07:34:26;;;;;;;22.50;9.70;;;;;;;19.82;60.15;97280.09;2082187;28;20232;-69
2023/10/02 07:35:27;;;;;;;24.50;10.10;;;;;;;20.02;59.64;97271.59;2075979;28;20783;-69
2023/10/02 07:36:32;;;;;;;20.38;9.43;;;;;;;20.70;58.63;97265.72;2082045;28;20193;-69
2023/10/02 07:37:34;;;;;;;24.50;9.82;;;;;;;20.36;59.03;97274.38;2081356;28;20293;-68
2023/10/02 07:38:37;;;;;;;19.75;11.18;;;;;;;20.35;59.30;97266.53;2083687;28;20200;-69
2023/10/02 07:39:38;;;;;;;20.42;8.75;;;;;;;21.35;57.53;97268.72;2084431;28;20208;-69
2023/10/02 07:40:48;;;;;;;23.58;10.13;;;;;;;21.19;57.58;97277.03;2081532;28;20208;-69
2023/10/02 07:41:59;;;;;;;26.75;10.07;;;;;;;21.88;55.28;97270.75;2082118;28;20551;-69
2023/10/02 07:43:01;;;;;;;30.33;10.15;;;;;;;21.66;55.60;97275.13;2080770;28;21147;-69
2023/10/02 07:44:08;;;;;;;25.50;9.93;;;;;;;22.34;54.31;97274.09;2082270;28;20204;-68
2023/10/02 07:45:21;;;;;;;18.48;9.77;;;;;;;21.84;55.58;97272.78;2081814;28;20200;-69
2023/10/02 07:46:23;;;;;;;21.75;9.30;;;;;;;22.07;54.99;97272.75;2083012;28;20193;-68
2023/10/02 07:47:25;;;;;;;18.83;9.93;;;;;;;22.04;54.85;97272.97;2083541;28;20236;-68
2023/10/02 07:48:31;;;;;;;20.17;10.40;;;;;;;22.65;53.78;97274.22;2080571;28;20430;-68
2023/10/02 07:49:34;;;;;;;19.60;9.30;;;;;;;22.31;54.46;97272.53;2077311;28;20973;-69
2023/10/02 07:50:41;;;;;;;16.77;10.53;;;;;;;22.17;55.18;97272.84;2082739;28;20914;-68
2023/10/02 07:51:44;;;;;;;22.70;10.20;;;;;;;22.60;53.99;97271.97;2080333;28;21204;-69
2023/10/02 07:52:46;;;;;;;18.73;9.70;;;;;;;22.89;53.76;97273.13;2079624;28;20465;-69
2023/10/02 07:53:48;;;;;;;19.37;9.10;;;;;;;22.93;53.58;97278.06;2077797;28;20928;-68
2023/10/02 07:54:50;;;;;;;19.30;10.23;;;;;;;23.33;52.93;97278.31;2075358;28;20430;-68
2023/10/02 07:55:52;;;;;;;17.87;9.33;;;;;;;24.37;51.06;97275.38;2074926;28;21398;-68
2023/10/02 07:56:54;;;;;;;16.57;9.30;;;;;;;23.68;51.96;97274.38;2073278;28;20518;-68
2023/10/02 07:58:00;;;;;;;21.80;9.97;;;;;;;23.58;52.41;97272.53;2073069;28;20823;-68
2023/10/02 07:59:02;;;;;;;22.67;9.30;;;;;;;23.51;52.55;97274.03;2070886;28;20519;-68
2023/10/02 08:00:33;;;;;;;18.37;10.53;;;;;;;23.28;53.26;97279.53;2074071;28;20454;-68
2023/10/02 08:01:29;;;;;;;21.20;9.70;;;;;;;23.89;52.16;97272.47;2074604;28;20523;-68
2023/10/02 08:02:33;;;;;;;18.53;8.77;;;;;;;24.27;51.28;97273.53;2067348;28;20427;-68
2023/10/02 08:03:43;;;;;;;22.27;9.07;;;;;;;24.91;50.34;97273.09;2070443;28;20518;-68
2023/10/02 08:04:47;;;;;;;17.97;10.03;;;;;;;25.60;48.95;97271.09;2072007;28;20541;-68
2023/10/02 08:05:49;;;;;;;19.23;9.63;;;;;;;25.23;49.07;97262.06;2073795;28;20506;-68
2023/10/02 08:06:52;;;;;;;14.70;8.60;;;;;;;25.17;49.75;97267.97;2074352;28;20490;-68
2023/10/02 08:08:08;;;;;;;16.43;9.17;;;;;;;25.06;50.09;97270.81;2073807;28;20459;-68
2023/10/02 08:10:48;;;;;;;18.03;10.10;;;;;;;25.58;49.31;97265.03;2075300;28;20495;-68
2023/10/02 08:11:52;;;;;;;17.77;10.13;;;;;;;25.80;49.06;97270.97;2071276;28;20435;-68
2023/10/02 08:12:57;;;;;;;17.30;10.20;;;;;;;25.77;49.09;97272.13;2070310;28;20447;-68
2023/10/02 08:14:00;;;;;;;21.37;10.70;;;;;;;26.22;48.07;97268.63;2075190;28;20427;-69
2023/10/02 08:15:32;;;;;;;18.73;9.87;;;;;;;26.09;48.74;97268.16;2073867;28;20958;-68
2023/10/02 08:16:33;;;;;;;18.83;11.03;;;;;;;25.82;48.92;97275.19;2074329;28;20463;-68
2023/10/02 08:18:56;;;;;;;18.90;9.93;;;;;;;26.68;47.93;97270.38;2073163;28;20493;-68
2023/10/02 08:20:15;;;;;;;20.70;10.70;;;;;;;26.79;47.55;97275.53;2074041;28;20433;-68
2023/10/02 08:21:17;;;;;;;16.40;9.53;;;;;;;27.12;47.02;97274.91;2076535;28;20437;-69
2023/10/02 08:22:20;;;;;;;20.30;9.93;;;;;;;27.49;46.58;97273.78;2076189;28;21013;-68
2023/10/02 08:23:21;;;;;;;20.97;10.40;;;;;;;27.34;46.77;97269.00;2070472;28;20563;-69
2023/10/02 08:24:24;;;;;;;19.97;8.93;;;;;;;27.57;45.90;97273.00;2073386;28;20481;-68
2023/10/02 08:25:26;;;;;;;16.40;9.40;;;;;;;27.07;46.21;97263.81;2074548;28;20865;-68
2023/10/02 08:26:27;;;;;;;17.27;10.17;;;;;;;27.98;45.13;97262.41;2073830;28;20493;-69
2023/10/02 08:27:38;;;;;;;18.07;9.80;;;;;;;28.21;44.86;97267.19;2073274;28;20446;-68
2023/10/02 08:28:40;;;;;;;22.13;11.67;;;;;;;27.82;44.75;97261.38;2073444;28;20993;-68
2023/10/02 08:29:44;;;;;;;18.20;9.87;;;;;;;27.58;45.06;97266.63;2074939;28;20438;-69
2023/10/02 08:30:59;;;;;;;18.03;9.17;;;;;;;27.58;45.45;97274.66;2073224;28;20509;-68
2023/10/02 08:32:01;;;;;;;22.00;10.47;;;;;;;27.25;45.94;97269.09;2073918;28;20423;-69
2023/10/02 08:33:18;;;;;;;21.73;11.33;;;;;;;27.51;45.92;97274.47;2073429;28;20455;-69
2023/10/02 08:34:39;;;;;;;22.60;10.67;;;;;;;27.73;45.70;97266.84;2072539;28;20435;-69
2023/10/02 08:35:46;;;;;;;20.17;10.30;;;;;;;27.64;45.99;97274.03;2073090;28;20431;-69
2023/10/02 08:37:04;;;;;;;19.67;11.27;;;;;;;27.78;45.59;97270.75;2071621;28;21124;-68
2023/10/02 08:38:21;;;;;;;21.73;11.47;;;;;;;27.58;45.48;97264.81;2071886;28;20458;-68
2023/10/02 08:39:23;;;;;;;23.13;11.73;;;;;;;27.51;45.62;97277.16;2072217;28;20529;-68
2023/10/02 08:40:26;;;;;;;18.80;9.77;;;;;;;27.94;45.93;97261.91;2073718;28;20430;-69
2023/10/02 08:41:28;;;;;;;20.87;11.33;;;;;;;27.75;45.19;97268.38;2073043;28;20427;-68
2023/10/02 08:42:29;;;;;;;22.17;10.63;;;;;;;27.25;45.66;97269.09;2073828;28;20578;-69
2023/10/02 08:43:41;;;;;;;19.20;10.47;;;;;;;28.30;44.44;97261.69;2072223;28;20458;-69
2023/10/02 08:44:43;;;;;;;23.33;11.60;;;;;;;27.95;45.38;97265.44;2074880;28;20970;-69
2023/10/02 08:45:44;;;;;;;21.70;11.00;;;;;;;27.54;45.50;97268.78;2075195;28;20438;-69
2023/10/02 08:46:48;;;;;;;22.33;10.87;;;;;;;28.22;44.99;97272.41;2072303;28;20573;-69
2023/10/02 08:47:49;;;;;;;24.37;11.63;;;;;;;28.17;44.54;97264.00;2073135;28;20443;-69
2023/10/02 08:48:57;;;;;;;24.40;13.33;;;;;;;28.33;44.52;97260.50;2075034;28;20530;-69
2023/10/02 08:50:05;;;;;;;27.27;11.87;;;;;;;28.35;44.75;97253.13;2074620;28;20934;-70
2023/10/02 08:51:08;;;;;;;25.53;11.70;;;;;;;28.00;45.51;97263.94;2077664;28;20505;-69
2023/10/02 08:52:11;;;;;;;24.80;11.63;;;;;;;29.11;44.20;97252.94;2076355;28;20422;-69
2023/10/02 08:53:23;;;;;;;23.77;11.73;;;;;;;28.07;44.96;97261.47;2074768;28;20521;-69
2023/10/02 08:54:27;;;;;;;24.83;11.67;;;;;;;28.32;44.74;97253.47;2073378;28;20426;-69
2023/10/02 08:55:36;;;;;;;23.30;11.27;;;;;;;28.27;44.55;97247.75;2074814;28;20513;-70
2023/10/02 08:56:43;;;;;;;24.33;11.47;;;;;;;28.12;45.33;97259.13;2071346;28;20521;-70
2023/10/02 08:57:55;;;;;;;24.40;10.90;;;;;;;28.96;43.83;97247.41;2072005;28;20466;-70
2023/10/02 08:59:27;;;;;;;24.10;12.17;;;;;;;29.18;44.02;97251.25;2073829;28;21412;-70
2023/10/02 09:00:30;;;;;;;24.70;12.40;;;;;;;28.71;44.51;97242.09;2075591;28;20540;-70
2023/10/02 09:01:33;;;;;;;22.17;11.87;;;;;;;30.07;42.32;97245.72;2072246;28;20910;-70
2023/10/02 09:02:40;;;;;;;24.33;12.80;;;;;;;29.32;43.22;97249.75;2068445;28;20439;-70
2023/10/02 09:04:21;;;;;;;23.47;11.30;;;;;;;29.58;42.82;97240.56;2071385;28;20534;-70
2023/10/02 09:05:13;;;;;;;23.07;11.93;;;;;;;29.69;43.25;97248.25;2074642;28;20435;-70
2023/10/02 09:06:25;;;;;;;22.27;11.77;;;;;;;29.20;43.89;97251.09;2072190;28;20433;-70
2023/10/02 09:10:18;;;;;;;27.77;13.50;;;;;;;29.16;43.69;97248.72;2078107;28;20794;-70
2023/10/02 09:11:28;;;;;;;24.47;12.23;;;;;;;29.45;43.57;97247.31;2073711;28;20505;-70
2023/10/02 09:12:30;;;;;;;23.27;13.23;;;;;;;29.97;42.67;97239.72;2071027;28;20449;-70
2023/10/02 09:13:33;;;;;;;30.10;13.03;;;;;;;29.62;43.49;97242.75;2072243;28;20489;-70
2023/10/02 09:14:39;;;;;;;25.20;12.03;;;;;;;29.33;43.63;97240.63;2069828;28;20423;-70
2023/10/02 09:15:46;;;;;;;23.30;12.10;;;;;;;29.86;43.37;97248.16;2070145;28;20943;-69
2023/10/02 09:18:35;;;;;;;28.67;13.30;;;;;;;30.01;42.70;97245.59;2070605;28;20467;-69
2023/10/02 09:19:38;;;;;;;25.70;11.90;;;;;;;30.26;42.62;97243.59;2071261;28;20928;-70
2023/10/02 09:21:15;;;;;;;27.30;13.93;;;;;;;30.10;42.84;97244.53;2073224;28;20444;-71
2023/10/02 09:22:18;;;;;;;29.80;14.63;;;;;;;29.88;43.36;97241.63;2073374;28;20432;-70
2023/10/02 09:23:23;;;;;;;26.03;15.40;;;;;;;30.30;42.62;97234.97;2073773;28;20450;-69
2023/10/02 09:24:25;;;;;;;28.97;14.20;;;;;;;30.20;42.55;97234.38;2074711;28;20469;-70
2023/10/02 09:25:35;;;;;;;31.13;14.43;;;;;;;30.56;42.12;97241.88;2075383;28;21067;-70
2023/10/02 09:26:43;;;;;;;29.03;14.73;;;;;;;30.27;42.49;97231.78;2073358;28;20517;-70
2023/10/02 09:27:56;;;;;;;33.23;13.97;;;;;;;30.33;42.11;97233.75;2071898;28;20450;-70
2023/10/02 09:28:58;;;;;;;28.97;15.53;;;;;;;29.70;42.77;97231.09;2068111;28;20436;-70
2023/10/02 09:30:21;;;;;;;28.77;15.47;;;;;;;29.29;43.65;97232.09;2073629;28;20419;-70
2023/10/02 09:31:24;;;;;;;27.53;13.47;;;;;;;29.48;43.37;97228.16;2075102;28;20925;-69
2023/10/02 09:32:26;;;;;;;33.63;15.80;;;;;;;30.12;42.51;97231.75;2075363;28;20438;-69
2023/10/02 09:33:28;;;;;;;31.60;14.50;;;;;;;30.40;42.20;97237.44;2071536;28;20488;-70
2023/10/02 09:35:10;;;;;;;29.93;14.83;;;;;;;28.69;44.87;97229.84;2073173;28;21036;-70
2023/10/02 09:36:44;;;;;;;33.23;16.40;;;;;;;29.86;42.49;97235.53;2075269;28;20430;-70
2023/10/02 09:38:10;;;;;;;30.20;15.50;;;;;;;30.41;41.21;97224.78;2068162;28;20467;-70
2023/10/02 09:42:06;;;;;;;41.70;17.83;;;;;;;29.98;41.61;97222.56;2075689;28;21040;-70
2023/10/02 09:43:11;;;;;;;34.37;16.47;;;;;;;30.04;41.89;97229.09;2070795;28;20458;-70
2023/10/02 09:44:21;;;;;;;35.43;17.30;;;;;;;30.08;41.57;97230.41;2073191;28;20580;-69
2023/10/02 09:45:30;;;;;;;31.37;16.10;;;;;;;29.62;42.24;97221.22;2077248;28;20435;-70
2023/10/02 09:46:35;;;;;;;34.70;16.97;;;;;;;29.97;42.09;97216.34;2075187;28;20754;-70
2023/10/02 09:47:37;;;;;;;29.87;15.70;;;;;;;30.33;41.39;97212.22;2069920;28;20438;-70
2023/10/02 09:49:21;;;;;;;30.63;15.90;;;;;;;30.91;41.19;97214.44;2075310;28;20487;-71
2023/10/02 09:50:26;;;;;;;28.87;15.60;;;;;;;31.25;39.95;97222.03;2074315;28;20437;-70
2023/10/02 09:51:29;;;;;;;30.67;15.53;;;;;;;31.41;40.25;97228.25;2074736;28;20495;-70
2023/10/02 09:52:34;;;;;;;30.43;15.83;;;;;;;30.86;40.95;97204.22;2073615;28;20441;-69
2023/10/02 09:53:38;;;;;;;34.37;16.63;;;;;;;31.09;40.57;97212.25;2070882;28;20446;-70
2023/10/02 09:55:04;;;;;;;30.97;15.80;;;;;;;30.96;40.60;97214.72;2070245;28;20420;-70
2023/10/02 09:56:14;;;;;;;39.27;15.97;;;;;;;31.31;40.02;97215.03;2072305;28;20426;-71
2023/10/02 09:57:29;;;;;;;33.00;17.37;;;;;;;31.52;39.69;97217.00;2072801;28;20426;-70
2023/10/02 09:58:37;;;;;;;33.87;15.83;;;;;;;31.94;39.27;97216.50;2072954;28;20454;-70
2023/10/02 09:59:46;;;;;;;32.63;16.13;;;;;;;32.49;38.53;97211.44;2067123;28;20481;-70
2023/10/02 10:03:32;;;;;;;32.67;16.73;;;;;;;31.58;39.25;97210.84;2074184;28;20430;-70
2023/10/02 10:06:16;;;;;;;32.83;17.90;;;;;;;31.60;39.07;97213.34;2069460;28;20451;-70
2023/10/02 10:07:37;;;;;;;34.83;17.03;;;;;;;31.77;38.91;97213.16;2070719;28;20432;-70
2023/10/02 10:10:49;;;;;;;33.60;16.03;;;;;;;31.94;38.73;97209.22;2071231;28;20455;-70
2023/10/02 10:13:26;;;;;;;31.60;15.90;;;;;;;31.62;38.63;97202.34;2076603;28;20453;-70
2023/10/02 10:14:37;;;;;;;32.57;16.40;;;;;;;32.13;37.04;97210.44;2076120;28;20491;-70
2023/10/02 10:15:40;;;;;;;36.53;15.90;;;;;;;32.24;37.32;97209.16;2073380;28;20430;-71
2023/10/02 10:16:44;;;;;;;33.13;15.93;;;;;;;32.56;36.88;97205.06;2082180;28;20920;-70
2023/10/02 10:17:52;;;;;;;30.70;15.60;;;;;;;31.95;37.53;97204.63;2076912;28;20454;-70
2023/10/02 10:19:26;;;;;;;32.23;16.30;;;;;;;31.90;38.04;97208.75;2075046;28;20820;-70
2023/10/02 10:20:22;;;;;;;32.13;16.23;;;;;;;32.82;37.06;97202.78;2069123;28;20488;-70
2023/10/02 10:21:57;;;;;;;31.27;16.90;;;;;;;33.40;36.87;97199.03;2070717;28;20420;-71
2023/10/02 10:23:40;;;;;;;30.57;15.53;;;;;;;32.99;36.66;97198.75;2072991;28;20451;-71
2023/10/02 10:25:22;;;;;;;30.60;15.80;;;;;;;32.50;37.08;97197.72;2073211;28;20567;-71
2023/10/02 10:26:40;;;;;;;33.40;16.73;;;;;;;33.11;36.27;97187.41;2073202;28;20466;-70
2023/10/02 10:27:41;;;;;;;29.33;16.17;;;;;;;33.70;35.73;97186.03;2074173;28;20800;-70
2023/10/02 10:28:53;;;;;;;31.20;16.23;;;;;;;33.45;36.06;97188.44;2074891;28;20556;-70
2023/10/02 10:30:10;;;;;;;32.77;15.70;;;;;;;33.09;36.54;97178.63;2077969;28;20752;-70
2023/10/02 10:31:26;;;;;;;35.70;16.77;;;;;;;34.63;35.34;97188.13;2076245;28;20423;-71
2023/10/02 10:32:31;;;;;;;32.30;17.00;;;;;;;34.63;35.34;97188.13;2072214;28;20426;-70
2023/10/02 10:33:35;;;;;;;38.77;17.37;;;;;;;33.57;36.18;97172.44;2073538;28;20434;-70
2023/10/02 10:35:12;;;;;;;29.00;16.07;;;;;;;33.25;36.36;97181.00;2072812;28;20431;-70
2023/10/02 10:36:35;;;;;;;30.10;16.30;;;;;;;33.09;35.87;97181.34;2071964;28;20505;-71
2023/10/02 10:37:47;;;;;;;32.30;16.30;;;;;;;34.00;34.56;97177.59;2070104;28;20430;-70
2023/10/02 10:38:49;;;;;;;31.93;15.20;;;;;;;34.04;34.68;97178.03;2069276;28;20941;-71
2023/10/02 10:39:54;;;;;;;30.90;16.60;;;;;;;33.70;34.71;97186.03;2072924;28;20474;-70
2023/10/02 10:41:05;;;;;;;33.87;15.80;;;;;;;33.16;35.93;97180.34;2073983;28;21087;-70
2023/10/02 10:42:07;;;;;;;32.20;16.00;;;;;;;32.88;36.35;97183.09;2069763;28;20422;-70
2023/10/02 10:43:12;;;;;;;29.63;16.17;;;;;;;33.42;36.01;97178.84;2075140;28;20466;-70
2023/10/02 10:44:21;;;;;;;28.30;15.70;;;;;;;34.03;35.04;97177.22;2070732;28;20461;-70
2023/10/02 10:45:24;;;;;;;28.80;15.50;;;;;;;33.95;34.48;97175.50;2077070;28;20422;-71
2023/10/02 10:46:28;;;;;;;34.43;15.30;;;;;;;33.40;35.44;97178.22;2077464;28;20436;-70
2023/10/02 10:47:39;;;;;;;32.27;16.40;;;;;;;33.47;35.38;97167.41;2073218;28;20770;-70
2023/10/02 10:48:45;;;;;;;33.70;17.20;;;;;;;33.83;35.07;97177.16;2069608;28;20435;-70
2023/10/02 10:49:53;;;;;;;26.30;14.63;;;;;;;33.70;34.94;97173.34;2076162;28;20437;-71
2023/10/02 10:51:06;;;;;;;35.47;16.13;;;;;;;33.87;34.82;97181.13;2074421;28;20431;-70
2023/10/02 10:52:34;;;;;;;28.70;15.80;;;;;;;33.65;34.95;97177.66;2075704;28;20970;-70
2023/10/02 10:53:30;;;;;;;31.90;16.00;;;;;;;34.11;34.43;97179.72;2074318;28;20447;-70
2023/10/02 10:54:39;;;;;;;40.07;15.60;;;;;;;33.81;34.25;97180.03;2074916;28;20651;-70
2023/10/02 10:56:05;;;;;;;33.73;16.20;;;;;;;34.32;34.50;97183.28;2074151;28;20442;-71
2023/10/02 10:57:21;;;;;;;33.30;17.30;;;;;;;34.90;34.54;97177.28;2071316;28;20468;-70
2023/10/02 10:58:31;;;;;;;35.90;16.57;;;;;;;34.75;34.26;97180.16;2070606;28;20815;-70
2023/10/02 10:59:33;;;;;;;30.50;15.10;;;;;;;34.62;33.55;97178.31;2070120;28;20436;-70
2023/10/02 11:00:39;;;;;;;29.23;14.90;;;;;;;34.45;33.52;97174.34;2069322;28;20437;-71
2023/10/02 11:02:09;;;;;;;33.40;15.53;;;;;;;34.60;33.77;97180.41;2070842;28;20455;-70
2023/10/02 11:03:14;;;;;;;29.10;14.70;;;;;;;34.40;33.90;97182.25;2072960;28;20981;-70
2023/10/02 11:04:26;;;;;;;31.30;15.50;;;;;;;33.90;34.58;97185.28;2074276;28;20520;-71
2023/10/02 11:05:33;;;;;;;31.67;16.50;;;;;;;34.23;34.44;97177.22;2071915;28;20461;-71
2023/10/02 11:06:41;;;;;;;33.50;15.83;;;;;;;33.78;34.53;97176.91;2067720;28;20473;-70
2023/10/02 11:07:47;;;;;;;36.13;16.90;;;;;;;34.03;34.46;97177.22;2074331;28;20457;-70
2023/10/02 11:09:11;;;;;;;32.90;15.83;;;;;;;33.76;34.88;97174.38;2074399;28;20430;-70
2023/10/02 11:10:20;;;;;;;26.50;13.87;;;;;;;33.69;34.94;97170.84;2073016;28;20422;-70
2023/10/02 11:11:26;;;;;;;29.17;16.03;;;;;;;33.24;35.52;97168.50;2075228;28;20455;-71
2023/10/02 11:12:38;;;;;;;30.07;15.77;;;;;;;33.65;34.74;97166.84;2075372;28;21049;-70
2023/10/02 11:13:50;;;;;;;28.53;14.67;;;;;;;33.52;35.13;97164.94;2073757;28;20439;-71
2023/10/02 11:14:53;;;;;;;32.83;15.03;;;;;;;33.48;35.47;97167.19;2071584;28;20430;-70
2023/10/02 11:16:09;;;;;;;31.30;16.20;;;;;;;33.85;35.22;97167.78;2075745;28;20442;-71
2023/10/02 11:17:11;;;;;;;28.30;15.27;;;;;;;33.94;34.67;97167.59;2076020;28;20510;-70
2023/10/02 11:18:23;;;;;;;29.37;16.27;;;;;;;32.50;36.39;97164.47;2070727;28;20455;-70
2023/10/02 11:20:31;;;;;;;29.03;16.50;;;;;;;34.01;34.76;97166.56;2075726;28;20426;-70
2023/10/02 11:21:44;;;;;;;31.03;16.00;;;;;;;34.15;34.24;97162.00;2073244;28;20470;-70
2023/10/02 11:23:03;;;;;;;31.50;14.57;;;;;;;34.25;33.74;97158.06;2072751;28;20527;-70
2023/10/02 11:24:21;;;;;;;28.37;14.17;;;;;;;33.93;34.23;97160.50;2073715;28;20546;-71
2023/10/02 11:25:24;;;;;;;32.30;15.87;;;;;;;33.68;34.21;97156.44;2074073;28;21031;-70
2023/10/02 11:26:26;;;;;;;28.43;15.53;;;;;;;33.42;34.49;97157.22;2073444;28;20431;-71
2023/10/02 11:27:29;;;;;;;25.97;13.73;;;;;;;33.28;34.70;97155.47;2073899;28;20548;-70
2023/10/02 11:28:32;;;;;;;30.90;15.30;;;;;;;32.97;35.90;97154.03;2075286;28;21145;-70
2023/10/02 11:29:45;;;;;;;35.90;15.90;;;;;;;32.94;35.06;97149.84;2070525;28;20469;-70
2023/10/02 11:30:59;;;;;;;34.20;15.37;;;;;;;32.65;35.56;97149.00;2074163;28;20431;-70
2023/10/02 11:32:19;;;;;;;34.00;15.27;;;;;;;32.39;35.41;97153.19;2073964;28;20929;-71
2023/10/02 11:33:27;;;;;;;36.60;15.00;;;;;;;32.47;35.28;97154.91;2073397;28;21000;-70
2023/10/02 11:34:29;;;;;;;34.40;15.53;;;;;;;31.38;36.34;97150.41;2076054;28;20800;-70
2023/10/02 11:35:38;;;;;;;32.00;16.07;;;;;;;30.99;37.02;97146.13;2076314;28;20803;-70
2023/10/02 11:36:52;;;;;;;33.30;16.20;;;;;;;30.32;37.20;97143.22;2079162;28;20458;-69
2023/10/02 11:37:55;;;;;;;46.03;17.40;;;;;;;31.20;36.72;97145.41;2067652;28;20967;-69
2023/10/02 11:38:56;;;;;;;35.30;16.87;;;;;;;32.25;35.82;97137.88;2068518;28;20437;-70
2023/10/02 11:39:58;;;;;;;31.13;15.70;;;;;;;32.04;35.91;97136.81;2068680;28;20426;-71
2023/10/02 11:41:00;;;;;;;31.40;15.90;;;;;;;31.67;36.21;97140.59;2070616;28;20434;-70
2023/10/02 11:42:04;;;;;;;33.17;15.60;;;;;;;32.33;35.57;97135.03;2071865;28;20416;-70
2023/10/02 11:43:06;;;;;;;30.63;16.07;;;;;;;31.83;35.97;97131.44;2074535;28;20462;-70
2023/10/02 11:44:12;;;;;;;34.27;17.50;;;;;;;32.37;34.74;97130.91;2077348;28;20445;-70
2023/10/02 11:45:15;;;;;;;30.67;16.80;;;;;;;33.41;34.27;97139.28;2075018;28;20497;-70
2023/10/02 11:46:16;;;;;;;38.37;17.40;;;;;;;34.37;32.73;97131.19;2078301;28;20517;-70
2023/10/02 11:47:18;;;;;;;36.10;17.70;;;;;;;32.76;34.05;97131.44;2078439;28;20426;-70
2023/10/02 11:48:19;;;;;;;34.23;16.80;;;;;;;34.40;32.73;97136.19;2076978;28;20450;-70
2023/10/02 11:49:21;;;;;;;35.73;17.97;;;;;;;34.57;31.85;97133.91;2072568;28;20427;-70
2023/10/02 11:50:23;;;;;;;37.63;15.53;;;;;;;34.44;31.97;97132.88;2072799;28;20455;-70
2023/10/02 11:51:28;;;;;;;37.60;17.97;;;;;;;35.05;31.33;97140.94;2078961;28;20426;-69
2023/10/02 11:52:31;;;;;;;36.77;17.70;;;;;;;34.66;30.88;97129.94;2077078;28;20758;-69
2023/10/02 11:53:33;;;;;;;36.10;18.73;;;;;;;35.19;30.89;97122.75;2074599;28;21015;-69
2023/10/02 11:54:39;;;;;;;33.97;17.50;;;;;;;34.97;31.01;97123.84;2071452;28;20470;-69
2023/10/02 11:55:41;;;;;;;32.57;17.63;;;;;;;35.42;30.78;97122.25;2073526;28;20452;-71
2023/10/02 11:56:42;;;;;;;39.90;19.17;;;;;;;34.90;30.64;97124.91;2070964;28;20431;-71
2023/10/02 11:57:51;;;;;;;38.37;18.93;;;;;;;35.40;30.24;97121.63;2069134;28;20450;-71
2023/10/02 11:58:53;;;;;;;33.87;18.40;;;;;;;35.20;30.56;97129.81;2073119;28;20989;-71
2023/10/02 11:59:54;;;;;;;36.83;19.40;;;;;;;35.79;29.74;97123.28;2075132;28;20441;-71
2023/10/02 12:00:56;;;;;;;33.37;17.70;;;;;;;36.35;29.77;97120.03;2074967;28;20475;-71
2023/10/02 12:01:58;;;;;;;35.03;19.17;;;;;;;36.09;29.97;97114.56;2076098;28;21024;-71
2023/10/02 12:02:59;;;;;;;38.20;19.50;;;;;;;36.82;29.33;97116.91;2075321;28;20459;-71
2023/10/02 12:04:04;;;;;;;34.43;17.53;;;;;;;37.02;29.15;97122.97;2073023;28;20510;-71
2023/10/02 12:05:07;;;;;;;35.40;18.80;;;;;;;36.39;28.93;97111.25;2074799;28;20458;-71
2023/10/02 12:06:14;;;;;;;34.10;17.47;;;;;;;36.12;29.50;97108.69;2075436;28;20479;-71
2023/10/02 12:07:16;;;;;;;35.10;17.80;;;;;;;36.45;30.08;97110.31;2075391;28;20466;-71
2023/10/02 12:08:22;;;;;;;37.97;17.63;;;;;;;37.18;29.17;97107.94;2074730;28;20497;-71
2023/10/02 12:09:24;;;;;;;34.10;17.97;;;;;;;36.73;30.53;97100.84;2070905;28;20423;-71
2023/10/02 12:10:27;;;;;;;37.57;18.27;;;;;;;36.75;30.76;97103.38;2068460;28;20464;-71
2023/10/02 12:11:32;;;;;;;32.33;17.97;;;;;;;36.71;30.08;97102.13;2069749;28;20475;-71
2023/10/02 12:12:33;;;;;;;32.00;18.10;;;;;;;36.63;30.34;97102.44;2076723;28;20433;-71
2023/10/02 12:13:35;;;;;;;47.57;18.67;;;;;;;36.58;30.33;97093.06;2072908;28;20908;-71